createdAt,value
2023-04-06T07:21:40.260Z,94976.41
2023-04-06T07:24:10.093Z,94976.81
2023-04-06T07:26:38.181Z,94977.91
2023-04-06T07:29:06.557Z,94977.19
2023-04-06T07:31:36.991Z,94978.75
2023-04-06T07:34:03.589Z,94968.81
2023-04-06T07:36:30.346Z,94982.38
2023-04-06T07:38:56.856Z,94983.19
2023-04-06T07:41:23.709Z,94979.75
2023-04-06T07:43:51.283Z,94975.78
2023-04-06T07:46:19.309Z,94975.72
2023-04-06T07:48:45.978Z,94973.56
2023-04-06T07:51:12.719Z,94973.72
2023-04-06T07:53:39.490Z,94977.81
2023-04-06T07:56:06.482Z,94974.34
2023-04-06T07:58:33.198Z,94974.34
2023-04-06T08:03:40.378Z,94979.34
2023-04-06T08:06:08.966Z,94982.00
2023-04-06T08:13:59.593Z,94980.47
2023-04-06T08:16:26.011Z,94972.72
2023-04-06T08:18:52.624Z,94974.91
2023-04-06T08:21:19.051Z,94979.72
2023-04-06T08:23:45.435Z,94983.69
2023-04-06T08:26:11.938Z,94981.53
2023-04-06T08:28:38.371Z,94975.28
2023-04-06T08:31:04.807Z,94983.41
2023-04-06T08:33:31.210Z,94981.91
2023-04-06T08:35:57.586Z,94975.28
2023-04-06T08:38:23.998Z,94976.81
2023-04-06T08:40:50.372Z,94979.63
2023-04-06T08:43:16.945Z,94969.59
2023-04-06T08:45:43.282Z,94974.19
2023-04-06T08:48:09.888Z,94974.50
2023-04-06T08:50:36.431Z,94973.53
2023-04-06T08:53:02.932Z,94971.72
2023-04-06T08:55:29.322Z,94970.72
2023-04-06T08:57:56.148Z,94968.56
2023-04-06T09:00:22.499Z,94968.03
2023-04-06T09:02:49.493Z,94972.22
2023-04-06T09:07:59.130Z,94968.94
2023-04-06T09:15:50.127Z,94954.63
2023-04-06T09:18:25.148Z,94962.13
2023-04-06T09:20:55.578Z,94953.97
2023-04-06T09:28:49.532Z,94946.34
2023-04-06T09:31:16.989Z,94954.00
2023-04-06T09:36:31.847Z,94948.19
2023-04-06T09:39:02.356Z,94953.81
2023-04-06T09:44:11.308Z,94957.38
2023-04-06T09:46:57.927Z,94953.16
2023-04-06T09:57:28.073Z,94958.00
2023-04-06T09:59:54.936Z,94945.56
2023-04-06T10:02:23.388Z,94951.06
2023-04-06T10:04:53.639Z,94957.00
2023-04-06T10:07:28.348Z,94951.75
2023-04-06T10:09:56.982Z,94949.25
2023-04-06T10:12:23.777Z,94953.25
2023-04-06T10:17:31.430Z,94956.47
2023-04-06T10:25:23.707Z,94953.72
2023-04-06T10:27:50.100Z,94956.63
2023-04-06T10:30:16.490Z,94951.16
2023-04-06T10:32:43.147Z,94959.88
2023-04-06T10:35:09.560Z,94954.53
2023-04-06T10:37:36.046Z,94958.13
2023-04-06T10:40:02.399Z,94955.75
2023-04-06T10:42:28.899Z,94953.06
2023-04-06T10:44:55.273Z,94949.41
2023-04-06T10:47:21.830Z,94953.72
2023-04-06T10:49:48.597Z,94952.44
2023-04-06T10:52:15.303Z,94948.94
2023-04-06T10:54:41.708Z,94957.19
2023-04-06T10:57:08.273Z,94953.50
2023-04-06T10:59:34.784Z,94956.50
2023-04-06T11:02:01.347Z,94956.50
2023-04-06T11:04:27.774Z,94949.25
2023-04-06T11:06:54.369Z,94956.56
2023-04-06T11:09:20.867Z,94949.63
2023-04-06T11:11:47.323Z,94948.19
2023-04-06T11:14:13.727Z,94939.75
2023-04-06T11:16:40.122Z,94950.56
2023-04-06T11:19:06.576Z,94946.13
2023-04-06T11:21:33.107Z,94948.06
2023-04-06T11:23:59.527Z,94940.44
2023-04-06T11:26:25.939Z,94943.91
2023-04-06T11:28:52.326Z,94941.47
2023-04-06T11:31:20.617Z,94945.53
2023-04-06T11:33:55.227Z,94940.34
2023-04-06T11:36:22.047Z,94931.25
2023-04-06T11:41:29.459Z,94933.66
2023-04-06T11:44:00.465Z,94928.34
2023-04-06T11:46:35.055Z,94929.97
2023-04-06T11:49:01.954Z,94928.06
2023-04-06T11:54:09.064Z,94927.09
2023-04-06T11:59:16.254Z,94919.59
2023-04-06T12:01:43.650Z,94917.03
2023-04-06T12:04:12.233Z,94916.50
2023-04-06T12:06:43.129Z,94919.56
2023-04-06T12:09:09.918Z,94910.06
2023-04-06T12:11:37.221Z,94903.91
2023-04-06T12:16:46.066Z,94903.47
2023-04-06T12:19:14.458Z,94901.16
2023-04-06T12:24:21.518Z,94893.16
2023-04-06T12:26:51.637Z,94894.88
2023-04-06T12:32:03.705Z,94881.53
2023-04-06T12:34:33.570Z,94883.59
2023-04-06T12:37:00.420Z,94889.38
2023-04-06T12:39:27.401Z,94874.56
2023-04-06T12:41:54.751Z,94890.25
2023-04-06T12:44:22.861Z,94888.34
2023-04-06T12:46:51.535Z,94882.72
2023-04-06T12:49:18.362Z,94892.34
2023-04-06T13:00:10.786Z,94897.97
2023-04-06T13:02:37.369Z,94880.16
2023-04-06T13:05:03.844Z,94887.94
2023-04-06T13:07:30.326Z,94878.88
2023-04-06T13:09:56.808Z,94876.75
2023-04-06T13:12:23.198Z,94884.34
2023-04-06T13:14:49.541Z,94880.94
2023-04-06T13:17:15.929Z,94873.72
2023-04-06T13:19:42.306Z,94869.63
2023-04-06T13:22:10.347Z,94874.44
2023-04-06T13:24:37.634Z,94871.66
2023-04-06T13:27:04.955Z,94876.03
2023-04-06T13:29:31.666Z,94868.63
2023-04-06T13:31:59.946Z,94863.00
2023-04-06T13:34:27.429Z,94863.59
2023-04-06T13:36:54.014Z,94865.41
2023-04-06T13:39:23.475Z,94860.84
2023-04-06T13:47:12.471Z,94855.94
2023-04-06T13:49:39.194Z,94858.88
2023-04-06T13:54:46.235Z,94853.66
2023-04-06T13:57:12.810Z,94850.69
2023-04-06T13:59:40.478Z,94851.00
2023-04-06T14:02:17.572Z,94847.31
2023-04-06T14:10:11.122Z,94840.31
2023-04-06T14:12:39.436Z,94842.41
2023-04-06T14:17:48.293Z,94847.78
2023-04-06T14:20:14.894Z,94849.00
2023-04-06T14:25:22.041Z,94839.78
2023-04-06T14:30:38.090Z,94846.91
2023-04-06T14:35:51.438Z,94836.06
2023-04-06T14:38:23.476Z,94836.97
2023-04-06T14:43:30.745Z,94840.59
2023-04-06T14:48:40.720Z,94830.09
2023-04-06T14:56:48.679Z,94841.44
2023-04-06T15:01:56.618Z,94843.38
2023-04-06T15:04:23.342Z,94843.78
2023-04-06T15:06:49.793Z,94825.66
2023-04-06T15:09:16.648Z,94835.28
2023-04-06T15:11:44.145Z,94837.94
2023-04-06T15:14:10.581Z,94843.72
2023-04-06T15:16:37.040Z,94841.50
2023-04-06T15:19:03.527Z,94830.03
2023-04-06T15:21:29.913Z,94841.66
2023-04-06T15:23:56.273Z,94834.47
2023-04-06T15:26:22.858Z,94834.25
2023-04-06T15:28:49.376Z,94847.16
2023-04-06T15:31:28.383Z,94831.41
2023-04-06T15:34:00.751Z,94825.53
2023-04-06T15:36:28.094Z,94834.53
2023-04-06T15:38:58.612Z,94835.22
2023-04-06T15:44:06.461Z,94833.38
2023-04-06T15:46:33.033Z,94834.91
2023-04-06T15:51:39.768Z,94838.34
2023-04-06T15:54:06.161Z,94838.34
2023-04-06T15:56:32.498Z,94823.91
2023-04-06T15:59:01.763Z,94830.75
2023-04-06T16:01:28.326Z,94838.47
2023-04-06T16:03:54.914Z,94843.41
2023-04-06T16:06:21.498Z,94837.94
2023-04-06T16:08:48.126Z,94838.31
2023-04-06T16:11:14.794Z,94831.81
2023-04-06T16:13:43.165Z,94834.25
2023-04-06T16:21:32.460Z,94839.50
2023-04-06T16:24:00.001Z,94835.50
2023-04-06T16:26:26.574Z,94835.56
2023-04-06T16:28:53.135Z,94833.16
2023-04-06T16:31:20.153Z,94834.25
2023-04-06T16:33:46.717Z,94834.81
2023-04-06T16:36:13.425Z,94835.47
2023-04-06T16:38:39.947Z,94825.03
2023-04-06T16:41:06.391Z,94834.56
2023-04-06T16:43:33.269Z,94832.28
2023-04-06T16:45:59.719Z,94835.94
2023-04-06T16:48:26.265Z,94833.44
2023-04-06T16:50:52.692Z,94831.19
2023-04-06T16:53:19.290Z,94834.66
2023-04-06T16:55:45.754Z,94841.97
2023-04-06T16:58:12.130Z,94835.91
2023-04-06T17:00:38.501Z,94841.25
2023-04-06T17:03:05.032Z,94836.34
2023-04-06T17:05:31.522Z,94835.09
2023-04-06T17:07:57.956Z,94838.72
2023-04-06T17:10:33.437Z,94846.06
2023-04-06T17:13:00.766Z,94847.28
2023-04-06T17:15:27.411Z,94839.91
2023-04-06T17:17:53.952Z,94847.16
2023-04-06T17:20:20.463Z,94849.38
2023-04-06T17:22:46.874Z,94850.09
2023-04-06T17:25:14.374Z,94848.34
2023-04-06T17:27:40.746Z,94840.50
2023-04-06T17:30:07.142Z,94833.94
2023-04-06T17:32:33.587Z,94839.31
2023-04-06T17:34:59.959Z,94831.06
2023-04-06T17:37:26.320Z,94829.41
2023-04-06T17:39:52.723Z,94829.66
2023-04-06T17:42:19.190Z,94837.47
2023-04-06T17:44:46.641Z,94836.59
2023-04-06T17:47:13.156Z,94831.00
2023-04-06T17:49:39.480Z,94826.88
2023-04-06T17:52:05.835Z,94831.41
2023-04-06T17:54:35.449Z,94846.13
2023-04-06T17:57:04.834Z,94840.84
2023-04-06T17:59:31.348Z,94844.88
2023-04-06T18:01:57.886Z,94849.91
2023-04-06T18:04:24.411Z,94854.94
2023-04-06T18:06:50.879Z,94856.97
2023-04-06T18:09:17.395Z,94856.53
2023-04-06T18:11:44.072Z,94863.00
2023-04-06T18:14:10.537Z,94858.88
2023-04-06T18:16:36.968Z,94856.59
2023-04-06T18:19:03.841Z,94869.19
2023-04-06T18:21:30.719Z,94871.56
2023-04-06T18:23:58.872Z,94864.81
2023-04-06T18:26:27.903Z,94868.38
2023-04-06T18:28:54.777Z,94869.09
2023-04-06T18:31:21.642Z,94870.31
2023-04-06T18:33:48.274Z,94872.47
2023-04-06T18:36:14.826Z,94870.00
2023-04-06T18:38:41.676Z,94876.88
2023-04-06T18:41:08.063Z,94874.13
2023-04-06T18:43:34.474Z,94884.44
2023-04-06T18:46:01.092Z,94881.16
2023-04-06T18:48:27.503Z,94889.25
2023-04-06T18:50:53.895Z,94886.97
2023-04-06T18:53:20.337Z,94897.09
2023-04-06T18:55:46.713Z,94889.69
2023-04-06T18:58:13.094Z,94889.59
2023-04-06T19:00:39.497Z,94899.72
2023-04-06T19:03:06.159Z,94902.47
2023-04-06T19:05:32.610Z,94899.72
2023-04-06T19:07:58.964Z,94906.53
2023-04-06T19:10:25.322Z,94902.53
2023-04-06T19:12:51.674Z,94907.00
2023-04-06T19:15:18.046Z,94911.84
2023-04-06T19:17:44.899Z,94922.84
2023-04-06T19:20:11.335Z,94924.47
2023-04-06T19:22:37.738Z,94922.50
2023-04-06T19:25:04.146Z,94933.13
2023-04-06T19:27:30.585Z,94938.03
2023-04-06T19:29:56.950Z,94940.47
2023-04-06T19:32:23.528Z,94940.59
2023-04-06T19:34:49.967Z,94939.44
2023-04-06T19:37:16.382Z,94947.78
2023-04-06T19:39:43.099Z,94958.34
